CheckWX is a tool to help pilots better visualize weather data.  It is not intended as a substitute for an official pre-flight weather briefing.

02:19:08 UTC

KMGW METAR
Morgantown Municipal-Walter L Bill Hart Field Airport
Morgantown, West Virginia, USA
Current

22 mins ago

KMGW 180157Z 00000KT 3/4SM BR OVC008 04/04 A2970 RMK AO2 T00390039
Observed
Feb-18 @ 01:57 UTC
Visibility
3/4 SM
Flight Rules
LIFR
Conditions
Mist
Cloud Levels
  • Overcast at 800' AGL
Temperature
C / 39°F
Dewpoint
C / 39°F
Humidity
100%
Altimeter
29.7" Hg
Pressure
1005.72 hPa
Previous

26 mins ago

KMGW 180153Z 00000KT 1 1/2SM BR OVC010 04/04 A2971 RMK AO2 RAB01E12B23E50 SLP069 P0001 T00390039
Observed
Feb-18 @ 01:53 UTC
Visibility
1 1/2 SM
Flight Rules
IFR
Conditions
Mist
Cloud Levels
  • Overcast at 1,000' AGL
Temperature
C / 39°F
Dewpoint
C / 39°F
Humidity
100%
Altimeter
29.71" Hg
Pressure
1006.9 hPa
Current Rain
0.01"
Previous

38 mins ago

KMGW 180141Z 00000KT 1 1/2SM -RA BR OVC012 04/04 A2971 RMK AO2 RAB01E12B23 P0001 T00390039
Observed
Feb-18 @ 01:41 UTC
Visibility
1 1/2 SM
Flight Rules
IFR
Conditions
Light Rain, Mist
Cloud Levels
  • Overcast at 1,200' AGL
Temperature
C / 39°F
Dewpoint
C / 39°F
Humidity
100%
Altimeter
29.71" Hg
Pressure
1006.12 hPa
Current Rain
0.01"